Time;durP1;ratioP1;P1;durP2;ratioP2;P2;SDS_P1;SDS_P2;PMS_P1;PMS_P2;Temp;Humidity;BMP_temperature;BMP_pressure;BME280_temperature;BME280_humidity;BME280_pressure;Samples;Min_cycle;Max_cycle;Signal;HPM_P1;HPM_P2
2022/10/22 00:00:36;;;;;;;7.93;4.88;;;;;;;9.45;68.53;98825.22;5005661;28;20057;-59
2022/10/22 00:03:34;;;;;;;7.57;4.47;;;;;;;9.46;68.39;98824.28;5012825;28;20061;-58
2022/10/22 00:06:18;;;;;;;7.97;4.45;;;;;;;9.43;68.67;98821.84;5014522;28;20041;-59
2022/10/22 00:09:03;;;;;;;8.10;4.70;;;;;;;9.49;68.33;98834.53;5015455;28;20038;-59
2022/10/22 00:11:47;;;;;;;5.40;4.18;;;;;;;9.47;68.55;98836.41;5013080;28;20528;-59
2022/10/22 00:14:32;;;;;;;7.30;4.38;;;;;;;9.53;68.29;98836.00;5001830;28;20053;-58
2022/10/22 00:17:17;;;;;;;6.57;4.60;;;;;;;9.48;68.80;98833.69;5017030;28;20078;-59
2022/10/22 00:20:03;;;;;;;9.05;5.00;;;;;;;9.50;68.70;98833.59;5013377;28;20049;-59
2022/10/22 00:22:49;;;;;;;7.07;4.55;;;;;;;9.58;68.35;98825.28;5014702;28;20083;-57
2022/10/22 00:25:35;;;;;;;6.90;4.80;;;;;;;9.52;68.54;98823.03;5015068;28;20102;-59
2022/10/22 00:28:20;;;;;;;8.43;5.13;;;;;;;9.42;68.87;98807.94;5010221;28;20261;-58
2022/10/22 00:31:05;;;;;;;9.50;5.03;;;;;;;9.33;69.18;98808.50;5015773;28;20045;-58
2022/10/22 00:33:50;;;;;;;8.32;4.95;;;;;;;9.41;68.78;98805.41;5026806;28;20099;-58
2022/10/22 00:36:35;;;;;;;8.10;4.70;;;;;;;9.09;69.80;98798.66;5016942;28;20046;-57
2022/10/22 00:39:22;;;;;;;9.02;5.32;;;;;;;9.11;70.09;98802.00;5016440;28;20049;-57
2022/10/22 00:42:15;;;;;;;7.35;4.85;;;;;;;9.06;70.19;98801.44;5020620;28;20460;-58
2022/10/22 00:45:16;;;;;;;13.00;5.15;;;;;;;9.04;70.51;98798.91;5020286;28;20037;-57
2022/10/22 00:48:06;;;;;;;7.43;4.70;;;;;;;8.99;70.66;98790.56;5013428;28;20056;-58
2022/10/22 00:51:00;;;;;;;8.23;5.60;;;;;;;8.94;70.94;98788.22;5013918;28;20532;-59
2022/10/22 00:53:52;;;;;;;7.95;4.75;;;;;;;8.93;71.16;98786.53;5016089;28;20292;-58
2022/10/22 00:56:37;;;;;;;7.88;5.18;;;;;;;8.97;70.92;98774.13;5013623;28;20124;-59
2022/10/22 00:59:22;;;;;;;7.38;4.47;;;;;;;8.93;71.12;98763.00;5013353;28;20038;-59
2022/10/22 01:02:07;;;;;;;6.68;4.60;;;;;;;8.93;71.26;98764.78;5012558;28;20072;-59
2022/10/22 01:04:52;;;;;;;6.80;4.50;;;;;;;8.86;71.28;98759.94;5025756;28;20103;-59
2022/10/22 01:07:44;;;;;;;6.38;4.43;;;;;;;8.88;71.48;98762.44;5013051;28;20133;-59
2022/10/22 01:10:47;;;;;;;8.35;5.15;;;;;;;8.85;71.34;98762.66;5011282;28;20052;-59
2022/10/22 01:14:00;;;;;;;8.27;5.15;;;;;;;8.84;71.37;98759.22;5012673;28;20527;-59
2022/10/22 01:16:59;;;;;;;9.90;5.43;;;;;;;8.80;71.69;98757.72;5012845;28;20052;-59
2022/10/22 01:20:03;;;;;;;7.60;4.72;;;;;;;8.75;71.90;98747.53;5006970;28;21480;-58
2022/10/22 01:23:05;;;;;;;9.43;5.45;;;;;;;8.77;72.04;98744.00;5015050;28;20045;-59
2022/10/22 01:26:16;;;;;;;12.10;5.05;;;;;;;8.79;71.93;98736.91;5019439;28;20033;-59
2022/10/22 01:29:11;;;;;;;9.57;5.60;;;;;;;8.77;72.12;98737.00;5011716;28;20042;-58
2022/10/22 01:32:01;;;;;;;8.98;5.25;;;;;;;8.88;71.99;98741.56;5011235;28;20049;-59
2022/10/22 01:34:49;;;;;;;10.38;5.00;;;;;;;8.87;71.77;98739.88;5010028;28;20096;-58
2022/10/22 01:37:43;;;;;;;7.32;4.38;;;;;;;8.82;71.98;98741.94;5015084;28;20132;-58
2022/10/22 01:40:28;;;;;;;10.52;5.43;;;;;;;8.88;72.12;98754.63;5010044;28;20077;-58
2022/10/22 01:43:14;;;;;;;7.97;4.95;;;;;;;8.90;71.64;98755.38;5013415;28;20046;-58
2022/10/22 01:46:02;;;;;;;8.13;4.65;;;;;;;8.85;71.87;98762.66;5018218;28;20053;-58
2022/10/22 01:49:00;;;;;;;9.38;5.15;;;;;;;8.84;71.95;98761.81;5016843;28;21762;-59
2022/10/22 01:52:15;;;;;;;9.75;5.85;;;;;;;8.83;71.76;98754.09;5015198;28;20069;-59
2022/10/22 01:55:20;;;;;;;7.07;4.80;;;;;;;8.80;71.83;98746.41;5012943;28;20180;-58
2022/10/22 01:58:33;;;;;;;7.40;4.70;;;;;;;8.72;72.27;98733.81;5012940;28;21989;-59
2022/10/22 02:01:30;;;;;;;11.05;5.03;;;;;;;8.70;72.42;98731.31;5012622;28;20359;-59
2022/10/22 02:04:43;;;;;;;9.45;5.25;;;;;;;8.69;72.45;98715.72;4994227;28;20049;-61
2022/10/22 02:07:34;;;;;;;11.05;5.07;;;;;;;8.74;72.03;98713.69;5010586;28;20077;-57
2022/10/22 02:10:41;;;;;;;10.60;5.45;;;;;;;8.67;72.32;98708.00;5011115;28;20378;-57
2022/10/22 02:13:40;;;;;;;8.30;4.90;;;;;;;8.60;72.77;98707.53;4998680;28;20049;-58
2022/10/22 02:16:30;;;;;;;9.70;4.88;;;;;;;8.65;72.85;98690.75;5017107;28;20049;-57
2022/10/22 02:19:26;;;;;;;9.07;4.75;;;;;;;8.63;72.81;98683.84;4975769;28;20816;-58
2022/10/22 02:22:11;;;;;;;9.75;5.20;;;;;;;8.56;73.11;98679.09;4975956;28;20151;-56
2022/10/22 02:24:56;;;;;;;8.38;5.00;;;;;;;8.65;73.02;98693.38;4969701;28;20227;-58
2022/10/22 02:27:46;;;;;;;8.23;4.80;;;;;;;8.66;72.62;98706.31;4972989;28;20131;-58
2022/10/22 02:30:34;;;;;;;7.90;4.47;;;;;;;8.65;72.90;98698.59;4975215;28;20414;-58
2022/10/22 02:33:22;;;;;;;9.18;5.53;;;;;;;8.69;72.57;98702.66;4973785;28;20118;-58
2022/10/22 02:36:08;;;;;;;8.30;5.45;;;;;;;8.65;72.80;98709.03;4989862;28;21219;-58
2022/10/22 02:38:54;;;;;;;8.32;5.22;;;;;;;8.62;73.08;98713.50;4991265;28;20085;-59
2022/10/22 02:41:39;;;;;;;8.82;5.38;;;;;;;8.60;73.14;98723.19;4993668;28;20090;-58
2022/10/22 02:44:24;;;;;;;8.70;5.57;;;;;;;8.58;73.33;98722.47;4993124;28;20080;-59
2022/10/22 02:47:08;;;;;;;7.35;5.28;;;;;;;8.54;73.49;98709.63;4993423;28;20046;-59
2022/10/22 02:49:53;;;;;;;10.00;5.05;;;;;;;8.54;73.64;98709.63;4996183;28;20057;-60
2022/10/22 02:52:38;;;;;;;10.52;5.35;;;;;;;8.57;73.60;98707.72;4997461;28;20915;-58
2022/10/22 02:55:23;;;;;;;9.57;5.28;;;;;;;8.47;73.80;98694.34;4992872;28;20055;-59
2022/10/22 02:58:08;;;;;;;9.57;5.38;;;;;;;8.47;73.86;98696.97;5016517;28;20124;-58
2022/10/22 03:00:52;;;;;;;12.27;4.97;;;;;;;8.47;73.74;98694.34;5017277;28;20129;-58
2022/10/22 03:03:37;;;;;;;7.65;4.80;;;;;;;8.48;73.77;98684.75;5016335;28;20551;-58
2022/10/22 03:06:22;;;;;;;8.75;4.80;;;;;;;8.49;73.80;98682.06;5018259;28;20038;-58
2022/10/22 03:09:07;;;;;;;7.88;4.78;;;;;;;8.47;73.86;98680.47;5019412;28;20789;-58
2022/10/22 03:11:51;;;;;;;7.28;5.03;;;;;;;8.42;73.99;98685.94;5014565;28;20492;-58
2022/10/22 03:14:36;;;;;;;8.07;4.60;;;;;;;8.37;74.31;98688.03;5012598;28;20080;-59
2022/10/22 03:17:20;;;;;;;9.13;4.78;;;;;;;8.43;74.27;98708.53;5016449;28;20049;-58
2022/10/22 03:20:06;;;;;;;9.32;5.10;;;;;;;8.43;74.10;98712.91;5019122;28;20129;-59
2022/10/22 03:22:50;;;;;;;7.30;4.70;;;;;;;8.40;74.35;98705.28;5015556;28;20082;-59
2022/10/22 03:25:35;;;;;;;8.25;5.00;;;;;;;8.38;74.36;98707.97;5015370;28;20050;-59
2022/10/22 03:28:20;;;;;;;8.05;4.63;;;;;;;8.37;74.43;98714.94;5013013;28;20104;-58
2022/10/22 03:31:04;;;;;;;8.75;4.95;;;;;;;8.34;74.53;98722.16;5020216;28;20073;-58
2022/10/22 03:33:49;;;;;;;9.13;4.75;;;;;;;8.31;74.85;98715.31;5014249;28;20059;-59
2022/10/22 03:36:34;;;;;;;12.07;5.78;;;;;;;8.32;74.74;98706.59;5016414;28;20045;-58
2022/10/22 03:39:20;;;;;;;11.10;5.18;;;;;;;8.31;74.84;98710.09;5003870;28;20145;-59
2022/10/22 03:42:06;;;;;;;9.13;5.15;;;;;;;8.32;74.75;98703.13;5011921;28;20503;-58
2022/10/22 03:44:51;;;;;;;9.50;5.55;;;;;;;8.27;74.94;98708.63;5013755;28;20100;-58
2022/10/22 03:47:36;;;;;;;8.77;5.20;;;;;;;8.22;75.43;98695.84;5013221;28;20050;-58
2022/10/22 03:50:21;;;;;;;6.80;4.63;;;;;;;8.25;75.64;98698.28;5012134;28;20042;-58
2022/10/22 03:53:07;;;;;;;10.07;4.75;;;;;;;8.22;75.13;98684.56;5016993;28;20045;-59
2022/10/22 03:55:52;;;;;;;9.73;4.65;;;;;;;8.17;75.27;98670.94;5013174;28;20061;-58
2022/10/22 03:58:38;;;;;;;9.35;5.28;;;;;;;8.18;75.40;98672.63;5021751;28;20048;-58
2022/10/22 04:01:23;;;;;;;9.73;4.50;;;;;;;8.18;75.40;98665.63;5019897;28;20049;-59
2022/10/22 04:04:08;;;;;;;7.10;5.00;;;;;;;8.21;75.05;98670.66;5019861;28;20041;-58
2022/10/22 04:06:53;;;;;;;6.60;4.18;;;;;;;8.21;75.27;98669.84;5016179;28;20073;-58
2022/10/22 04:09:38;;;;;;;8.35;4.95;;;;;;;8.23;75.27;98654.91;5016296;28;20819;-59
2022/10/22 04:12:22;;;;;;;8.88;4.80;;;;;;;8.23;75.20;98649.69;5014342;28;20655;-58
2022/10/22 04:15:07;;;;;;;8.52;5.30;;;;;;;8.25;75.10;98650.44;5017109;28;20492;-57
2022/10/22 04:17:53;;;;;;;11.27;5.82;;;;;;;8.28;75.13;98638.97;5014609;28;20100;-58
2022/10/22 04:20:37;;;;;;;8.73;5.68;;;;;;;8.28;74.84;98639.81;5027462;28;20073;-58
2022/10/22 04:23:22;;;;;;;7.68;4.90;;;;;;;8.29;75.20;98646.72;5017854;28;20507;-59
2022/10/22 04:26:07;;;;;;;8.70;5.53;;;;;;;8.24;75.27;98638.34;5014623;28;20045;-58
2022/10/22 04:28:52;;;;;;;9.73;5.80;;;;;;;8.22;75.45;98650.63;5024342;28;20041;-57
2022/10/22 04:31:37;;;;;;;8.65;5.07;;;;;;;8.20;75.52;98624.63;5013399;28;20068;-59
2022/10/22 04:34:21;;;;;;;8.02;5.40;;;;;;;8.19;75.69;98630.81;5013844;28;20046;-58
2022/10/22 04:37:06;;;;;;;10.98;5.75;;;;;;;8.23;75.21;98640.09;5014066;28;20674;-59
2022/10/22 04:39:51;;;;;;;12.98;5.80;;;;;;;8.21;75.48;98639.34;5017986;28;20042;-59
2022/10/22 04:42:35;;;;;;;14.00;6.15;;;;;;;8.21;75.68;98636.75;5013488;28;20046;-58
2022/10/22 04:45:20;;;;;;;8.38;5.53;;;;;;;8.18;75.73;98655.19;5012490;28;20042;-58
2022/10/22 04:48:05;;;;;;;8.18;5.45;;;;;;;8.16;75.74;98653.63;5015752;28;20496;-58
2022/10/22 04:50:49;;;;;;;9.82;5.78;;;;;;;8.13;75.92;98652.88;5016981;28;20045;-60
2022/10/22 04:53:34;;;;;;;10.55;5.30;;;;;;;8.14;75.99;98657.16;5014668;28;20053;-59
2022/10/22 04:56:29;;;;;;;8.63;5.70;;;;;;;8.15;76.08;98671.03;5004765;28;20065;-57
2022/10/22 04:59:14;;;;;;;10.13;5.60;;;;;;;8.16;75.74;98685.75;5013621;28;20110;-58
2022/10/22 05:01:59;;;;;;;9.57;5.45;;;;;;;8.16;75.58;98685.75;5010117;28;20511;-58
2022/10/22 05:04:44;;;;;;;9.55;5.50;;;;;;;8.15;75.86;98697.13;5011924;28;20112;-57
2022/10/22 05:07:28;;;;;;;11.93;5.15;;;;;;;8.14;76.05;98698.91;5011015;28;20041;-57
2022/10/22 05:10:13;;;;;;;8.07;5.00;;;;;;;8.16;75.75;98690.16;5012691;28;20124;-58
2022/10/22 05:12:57;;;;;;;8.73;4.75;;;;;;;8.12;75.95;98686.88;5013574;28;20068;-56
2022/10/22 05:15:42;;;;;;;8.30;5.50;;;;;;;8.13;76.04;98688.56;5013572;28;20115;-58
2022/10/22 05:18:26;;;;;;;10.07;5.28;;;;;;;8.14;75.88;98685.84;5010413;28;20077;-58
2022/10/22 05:21:14;;;;;;;12.45;5.15;;;;;;;8.18;77.61;98673.47;4998061;28;20072;-54
2022/10/22 05:23:59;;;;;;;9.88;5.10;;;;;;;9.23;74.19;98681.00;5009135;28;20157;-60
2022/10/22 05:26:44;;;;;;;8.52;5.30;;;;;;;8.43;75.42;98677.22;5006357;28;20038;-58
2022/10/22 05:29:28;;;;;;;10.45;5.85;;;;;;;8.31;75.75;98685.75;5011193;28;20065;-57
2022/10/22 05:32:14;;;;;;;10.45;5.05;;;;;;;8.24;76.06;98690.53;5013818;28;20077;-57
2022/10/22 05:34:58;;;;;;;9.10;5.45;;;;;;;8.24;75.96;98688.75;5013131;28;20165;-58
2022/10/22 05:37:43;;;;;;;9.02;5.38;;;;;;;8.32;75.57;98690.06;5011322;28;20073;-60
2022/10/22 05:40:28;;;;;;;9.95;5.60;;;;;;;8.36;75.39;98695.00;5015142;28;20041;-58
2022/10/22 05:43:12;;;;;;;12.90;6.25;;;;;;;8.31;75.70;98681.41;5018930;28;20061;-59
2022/10/22 05:46:07;;;;;;;9.15;5.93;;;;;;;8.37;75.49;98693.25;5016581;28;20100;-59
2022/10/22 05:49:03;;;;;;;9.23;5.53;;;;;;;8.89;75.21;98698.00;5011661;28;20408;-59
2022/10/22 05:51:47;;;;;;;11.30;5.05;;;;;;;8.87;80.27;98706.78;5013484;28;20128;-58
2022/10/22 05:54:31;;;;;;;10.00;5.72;;;;;;;8.73;74.04;98705.00;5014361;28;20491;-58
2022/10/22 05:57:17;;;;;;;7.97;5.32;;;;;;;8.71;73.83;98711.25;5019073;28;20061;-58
2022/10/22 06:00:03;;;;;;;10.60;5.53;;;;;;;8.91;73.59;98723.06;5016352;28;20056;-57
2022/10/22 06:02:50;;;;;;;10.48;5.55;;;;;;;8.96;73.13;98728.03;5014721;28;20068;-58
2022/10/22 06:05:36;;;;;;;11.10;5.60;;;;;;;8.98;73.44;98726.16;5012205;28;20049;-59
2022/10/22 06:08:21;;;;;;;10.82;5.63;;;;;;;9.00;73.02;98732.13;5017281;28;20492;-58
2022/10/22 06:11:06;;;;;;;8.98;5.63;;;;;;;8.92;73.25;98726.53;5008922;28;20374;-59
2022/10/22 06:13:51;;;;;;;11.93;6.40;;;;;;;8.95;73.05;98728.94;5016445;28;20475;-59
2022/10/22 06:16:35;;;;;;;8.32;5.45;;;;;;;8.95;73.19;98721.97;5014169;28;20405;-58
2022/10/22 06:19:21;;;;;;;9.73;6.18;;;;;;;9.05;72.53;98716.16;5016063;28;20045;-58
2022/10/22 06:22:07;;;;;;;8.88;5.03;;;;;;;9.03;72.74;98711.03;5012506;28;20075;-59
2022/10/22 06:24:51;;;;;;;9.57;4.78;;;;;;;9.91;73.54;98703.66;5008764;28;20125;-58
2022/10/22 06:27:36;;;;;;;9.77;5.55;;;;;;;9.40;71.81;98686.91;5026399;28;20065;-59
2022/10/22 06:30:21;;;;;;;10.57;4.75;;;;;;;9.47;71.30;98658.56;5013179;28;20080;-58
2022/10/22 06:33:05;;;;;;;8.38;5.22;;;;;;;9.70;70.30;98658.84;5015966;28;20073;-57
2022/10/22 06:35:50;;;;;;;9.18;5.85;;;;;;;10.00;69.20;98680.44;5013526;28;20112;-56
2022/10/22 06:38:35;;;;;;;8.43;5.68;;;;;;;10.06;68.90;98683.47;5012027;28;20128;-57
2022/10/22 06:41:20;;;;;;;11.63;6.38;;;;;;;9.97;69.14;98687.53;5009358;28;20385;-55
2022/10/22 06:44:05;;;;;;;8.88;5.40;;;;;;;10.10;68.46;98684.13;5014879;28;20049;-55
2022/10/22 06:46:51;;;;;;;9.10;4.97;;;;;;;10.19;68.09;98686.09;5014095;28;20485;-57
2022/10/22 06:49:35;;;;;;;8.73;5.15;;;;;;;9.97;68.84;98700.63;5011854;28;20125;-58
2022/10/22 06:52:20;;;;;;;8.77;6.15;;;;;;;10.89;80.60;98713.69;5009375;28;20038;-52
2022/10/22 06:55:05;;;;;;;20.17;5.57;;;;;;;10.77;66.91;98712.78;5009453;28;20081;-55
2022/10/22 06:57:49;;;;;;;11.02;5.53;;;;;;;10.88;68.33;98722.50;5014790;28;20567;-57
2022/10/22 07:00:34;;;;;;;8.13;5.50;;;;;;;11.50;64.68;98728.59;5013935;28;20555;-58
2022/10/22 07:06:25;;;;;;;11.25;4.53;;;;;;;11.56;63.52;98743.88;4897624;29;20462;-50
2022/10/22 07:09:11;;;;;;;11.20;5.60;;;;;;;11.53;64.27;98741.50;4898475;29;20547;-50
2022/10/22 07:11:56;;;;;;;8.93;4.90;;;;;;;12.12;62.33;98743.38;4901950;29;20044;-54
2022/10/22 07:14:41;;;;;;;7.60;4.72;;;;;;;12.47;69.61;98757.44;4905768;29;20109;-54
2022/10/22 07:17:25;;;;;;;12.07;6.55;;;;;;;12.89;59.96;98752.41;4900094;29;20065;-56
2022/10/22 07:20:11;;;;;;;9.18;6.07;;;;;;;12.43;61.27;98735.81;4895062;29;20481;-52
2022/10/22 07:22:55;;;;;;;10.27;6.13;;;;;;;12.34;61.70;98720.75;4898977;29;20056;-54
2022/10/22 07:25:40;;;;;;;13.45;5.78;;;;;;;13.62;59.53;98737.09;4900802;29;20086;-59
2022/10/22 07:28:26;;;;;;;10.15;5.25;;;;;;;13.61;58.57;98752.03;4900210;29;20041;-53
2022/10/22 07:31:12;;;;;;;9.15;5.18;;;;;;;13.95;57.72;98760.75;4905755;29;20151;-51
2022/10/22 07:33:57;;;;;;;9.00;5.43;;;;;;;14.13;57.59;98771.56;4900865;29;20048;-57
2022/10/22 07:36:41;;;;;;;10.70;5.72;;;;;;;13.89;57.62;98780.53;4897822;29;20048;-50
2022/10/22 07:39:27;;;;;;;8.15;4.97;;;;;;;13.36;58.74;98785.59;4898908;29;20220;-55
2022/10/22 07:42:12;;;;;;;8.27;5.00;;;;;;;13.36;61.15;98798.75;4903911;29;20079;-52
2022/10/22 07:44:56;;;;;;;8.48;5.20;;;;;;;12.98;60.85;98813.09;4898342;29;20134;-55
2022/10/22 07:47:43;;;;;;;8.43;4.80;;;;;;;13.10;65.87;98822.69;4897171;29;20067;-54
2022/10/22 07:50:28;;;;;;;7.95;4.78;;;;;;;13.28;62.24;98823.03;4898461;29;20063;-51
2022/10/22 07:53:13;;;;;;;10.48;5.18;;;;;;;13.21;66.28;98824.47;4893007;29;20131;-53
2022/10/22 07:55:58;;;;;;;22.98;9.55;;;;;;;13.01;62.05;98823.38;4907456;29;20048;-54
2022/10/22 07:58:42;;;;;;;10.55;6.15;;;;;;;13.05;63.62;98825.69;4897737;29;20044;-52
2022/10/22 08:01:27;;;;;;;8.10;5.15;;;;;;;13.11;66.94;98815.63;4901085;29;20388;-54
2022/10/22 08:04:12;;;;;;;7.20;5.03;;;;;;;12.92;63.47;98814.44;4900185;29;20155;-51
2022/10/22 08:06:56;;;;;;;10.60;4.82;;;;;;;12.98;63.34;98824.47;4895583;29;20052;-51
2022/10/22 08:09:41;;;;;;;10.82;5.45;;;;;;;12.69;65.58;98833.66;4898501;29;20172;-52
2022/10/22 08:12:26;;;;;;;13.30;6.03;;;;;;;12.30;67.41;98826.06;4898125;29;20092;-58
2022/10/22 08:15:11;;;;;;;8.90;5.50;;;;;;;11.83;67.73;98846.97;4901140;29;20060;-52
2022/10/22 08:17:56;;;;;;;9.63;5.63;;;;;;;11.63;69.30;98843.13;4900211;29;20072;-56
2022/10/22 08:20:41;;;;;;;11.23;4.93;;;;;;;12.05;71.11;98859.34;4883996;29;20152;-51
2022/10/22 08:23:25;;;;;;;7.75;4.97;;;;;;;12.65;73.14;98871.63;4895252;29;20118;-56
2022/10/22 08:26:10;;;;;;;8.73;5.50;;;;;;;13.95;68.35;98871.38;4905767;29;20068;-56
2022/10/22 08:28:55;;;;;;;9.93;5.50;;;;;;;13.10;67.83;98870.03;4902748;29;20345;-55
2022/10/22 08:31:40;;;;;;;10.63;5.57;;;;;;;13.02;67.94;98867.97;4899350;29;20142;-53
2022/10/22 08:34:24;;;;;;;9.13;5.97;;;;;;;13.22;70.92;98864.78;4896534;29;20124;-51
2022/10/22 08:37:13;;;;;;;10.00;5.78;;;;;;;13.57;66.16;98861.16;4900120;29;20966;-56
2022/10/22 08:39:57;;;;;;;9.95;5.10;;;;;;;13.18;74.44;98851.84;4901670;29;20055;-61
2022/10/22 08:43:11;;;;;;;15.52;6.35;;;;;;;12.99;67.82;98857.69;4894981;29;20124;-53
2022/10/22 08:46:21;;;;;;;9.35;6.22;;;;;;;12.92;73.58;98861.75;4900170;29;20060;-54
2022/10/22 08:49:14;;;;;;;13.18;6.45;;;;;;;11.50;75.65;98861.53;4896470;29;20104;-52
2022/10/22 08:52:00;;;;;;;12.27;6.57;;;;;;;10.78;73.56;98861.19;4900688;29;20492;-56
2022/10/22 08:54:58;;;;;;;9.70;6.40;;;;;;;11.61;72.08;98869.50;4898380;29;20127;-50
2022/10/22 08:58:04;;;;;;;10.07;5.97;;;;;;;11.52;73.74;98883.28;4898016;29;20056;-52
2022/10/22 09:01:01;;;;;;;11.40;6.32;;;;;;;11.95;71.25;98895.94;4899839;29;20075;-51
2022/10/22 09:03:56;;;;;;;10.95;7.15;;;;;;;12.71;76.93;98912.41;4896410;29;20052;-55
2022/10/22 09:06:43;;;;;;;34.13;23.00;;;;;;;13.59;86.82;98909.28;4896927;29;20411;-53
2022/10/22 09:09:35;;;;;;;25.05;19.20;;;;;;;13.70;68.63;98883.88;4886209;29;20040;-56
2022/10/22 09:12:23;;;;;;;20.25;16.08;;;;;;;13.50;76.54;98879.22;4902632;29;20080;-52
2022/10/22 09:15:15;;;;;;;16.98;10.48;;;;;;;13.56;80.09;98891.09;4890293;29;20456;-53
2022/10/22 09:18:21;;;;;;;35.53;27.63;;;;;;;12.23;75.58;98898.38;4895350;29;20067;-60
2022/10/22 09:21:28;;;;;;;24.92;15.35;;;;;;;12.23;73.94;98905.41;4894110;29;20053;-53
2022/10/22 09:24:30;;;;;;;13.75;8.43;;;;;;;11.52;75.77;98917.38;4850450;29;20061;-53
2022/10/22 09:27:22;;;;;;;11.25;8.30;;;;;;;11.96;77.98;98904.66;4828605;29;20053;-58
2022/10/22 09:30:15;;;;;;;17.50;11.88;;;;;;;13.31;80.60;98900.88;4850135;29;20880;-54
2022/10/22 09:33:00;;;;;;;10.07;7.50;;;;;;;12.88;71.29;98897.13;4850641;29;20093;-54
2022/10/22 09:35:52;;;;;;;13.90;7.95;;;;;;;11.79;74.39;98904.09;4849179;29;20064;-51
2022/10/22 09:38:46;;;;;;;11.82;7.03;;;;;;;10.87;76.86;98899.06;4850684;29;20493;-53
2022/10/22 09:41:31;;;;;;;19.73;15.45;;;;;;;11.64;92.99;98906.00;4850390;29;20238;-53
2022/10/22 09:44:18;;;;;;;10.90;7.97;;;;;;;11.20;77.66;98890.66;4849806;29;20042;-52
2022/10/22 09:47:24;;;;;;;16.85;9.88;;;;;;;10.79;80.94;98865.50;4849477;29;20038;-54
2022/10/22 09:50:45;;;;;;;15.32;8.57;;;;;;;10.97;75.05;98858.16;4850503;29;20548;-48
2022/10/22 09:53:40;;;;;;;11.65;7.50;;;;;;;10.61;81.50;98864.97;4813503;29;20916;-57
2022/10/22 09:56:39;;;;;;;10.95;7.35;;;;;;;10.87;75.70;98872.84;4799255;29;20536;-54
2022/10/22 09:59:35;;;;;;;11.25;7.05;;;;;;;10.58;77.43;98864.22;4813355;29;20078;-49
2022/10/22 10:02:22;;;;;;;9.45;7.05;;;;;;;10.77;77.14;98872.63;4858982;29;20060;-55
2022/10/22 10:05:16;;;;;;;13.48;8.30;;;;;;;11.21;78.72;98870.53;4856901;29;20144;-57
2022/10/22 10:08:10;;;;;;;8.93;5.80;;;;;;;11.11;74.66;98899.16;4873816;29;20070;-51
2022/10/22 10:11:02;;;;;;;12.88;6.90;;;;;;;10.68;76.41;98922.09;4837402;29;20076;-50
2022/10/22 10:14:15;;;;;;;9.20;6.43;;;;;;;10.55;76.87;98924.69;4857978;29;20046;-51
2022/10/22 10:17:35;;;;;;;9.82;6.60;;;;;;;10.34;79.59;98926.91;4855035;29;20054;-56
2022/10/22 10:20:26;;;;;;;10.88;7.05;;;;;;;10.22;81.11;98933.75;4848896;29;20093;-52
2022/10/22 10:23:32;;;;;;;15.75;7.03;;;;;;;10.33;82.46;98922.63;4859452;29;20065;-51
2022/10/22 10:26:17;;;;;;;11.73;6.95;;;;;;;10.25;83.40;98909.19;4873756;29;20065;-51
2022/10/22 10:29:14;;;;;;;11.23;8.02;;;;;;;9.98;84.36;98914.31;4886092;29;20110;-53
2022/10/22 10:32:21;;;;;;;11.80;7.35;;;;;;;10.27;92.81;98922.97;4894689;29;20582;-55
2022/10/22 10:35:27;;;;;;;10.63;6.95;;;;;;;10.64;86.18;98915.38;4893891;29;20044;-53
2022/10/22 10:38:30;;;;;;;14.05;7.35;;;;;;;10.79;85.03;98913.50;4897654;29;20048;-52
2022/10/22 10:41:30;;;;;;;11.82;8.55;;;;;;;10.58;86.12;98905.28;4890172;29;20059;-50
2022/10/22 10:44:33;;;;;;;12.13;7.57;;;;;;;10.64;85.99;98904.88;4899732;29;20063;-57
2022/10/22 10:47:49;;;;;;;12.75;7.15;;;;;;;10.91;86.30;98893.50;4901071;29;20059;-53
2022/10/22 10:50:59;;;;;;;13.95;8.57;;;;;;;10.73;85.55;98895.56;4901050;29;20048;-50
2022/10/22 10:54:18;;;;;;;10.48;7.55;;;;;;;10.79;86.76;98907.41;4894405;29;20067;-50
2022/10/22 10:57:21;;;;;;;17.95;8.10;;;;;;;10.79;87.92;98907.41;4884682;29;20131;-52
2022/10/22 11:00:18;;;;;;;13.00;7.78;;;;;;;10.84;88.59;98894.84;4901136;29;20096;-52
2022/10/22 11:03:13;;;;;;;14.63;9.10;;;;;;;10.83;89.77;98893.19;4882984;29;20045;-50
2022/10/22 11:06:05;;;;;;;13.50;8.55;;;;;;;11.06;86.92;98882.91;4900595;29;20083;-53
2022/10/22 11:08:55;;;;;;;;;;;;;;;10.82;87.05;98886.28;4903358;29;20048;-55
2022/10/22 11:12:15;;;;;;;16.83;8.95;;;;;;;10.40;90.51;98889.81;4896137;29;19929;-53
2022/10/22 11:15:34;;;;;;;15.80;9.05;;;;;;;10.28;90.63;98885.41;4824467;29;20122;-48
2022/10/22 11:18:29;;;;;;;15.77;8.55;;;;;;;10.40;90.05;98892.44;4822756;29;20515;-47
2022/10/22 11:21:42;;;;;;;17.15;9.02;;;;;;;10.52;89.93;98887.38;4822638;29;20058;-50
2022/10/22 11:24:34;;;;;;;15.98;8.95;;;;;;;10.54;89.47;98882.88;4822053;29;20058;-49
2022/10/22 11:27:30;;;;;;;13.73;8.75;;;;;;;12.07;84.60;98878.47;4826182;29;20061;-51
2022/10/22 11:30:18;;;;;;;13.82;8.63;;;;;;;11.14;88.13;98867.50;4824333;29;20086;-54
2022/10/22 11:33:08;;;;;;;12.88;8.35;;;;;;;10.82;89.82;98862.69;4827872;29;20045;-58
2022/10/22 11:35:56;;;;;;;14.80;9.00;;;;;;;10.80;90.93;98859.31;4817300;29;20050;-53
2022/10/22 11:38:41;;;;;;;13.20;8.13;;;;;;;10.93;90.72;98860.16;4823185;29;20050;-57
2022/10/22 11:41:29;;;;;;;17.10;9.18;;;;;;;10.92;91.16;98861.09;4826041;29;20648;-56
2022/10/22 11:44:24;;;;;;;15.60;9.07;;;;;;;10.84;92.53;98847.66;4810240;29;20054;-49
2022/10/22 11:47:17;;;;;;;14.23;8.48;;;;;;;10.99;93.38;98848.41;4826191;29;20134;-57
2022/10/22 11:50:02;;;;;;;16.85;9.82;;;;;;;11.11;93.84;98838.00;4852026;29;20059;-53
2022/10/22 11:53:13;;;;;;;18.05;11.60;;;;;;;11.08;94.19;98837.28;4891822;29;20132;-51
2022/10/22 11:56:11;;;;;;;18.25;9.57;;;;;;;11.09;94.83;98846.84;4896489;29;20125;-57
2022/10/22 11:58:58;;;;;;;12.95;8.63;;;;;;;11.16;95.22;98856.91;4897232;29;20048;-56
2022/10/22 12:01:46;;;;;;;15.30;9.40;;;;;;;11.08;96.64;98865.28;4898137;29;20457;-59
2022/10/22 12:04:41;;;;;;;15.68;8.73;;;;;;;10.79;99.39;98870.72;4896846;29;20060;-54
2022/10/22 12:07:53;;;;;;;13.52;9.20;;;;;;;10.65;100.00;98867.28;4893609;29;20059;-57
2022/10/22 12:10:49;;;;;;;;;;;;;;;10.65;100.00;98864.66;4899131;29;20045;-52
2022/10/22 12:14:11;;;;;;;15.95;9.65;;;;;;;11.17;99.25;98866.44;4898447;29;19977;-53
2022/10/22 12:17:08;;;;;;;13.95;8.95;;;;;;;10.98;99.19;98861.63;4894171;29;20459;-66
2022/10/22 12:20:09;;;;;;;15.20;8.82;;;;;;;11.29;95.62;98868.19;4896900;29;20647;-52
2022/10/22 12:22:57;;;;;;;15.57;8.20;;;;;;;11.16;97.15;98864.75;4892699;29;20044;-52
2022/10/22 12:25:41;;;;;;;13.50;9.20;;;;;;;11.17;98.24;98872.53;4897046;29;20055;-55
2022/10/22 12:28:26;;;;;;;16.50;8.73;;;;;;;11.24;99.69;98869.47;4897196;29;20511;-56
2022/10/22 12:31:16;;;;;;;12.02;8.70;;;;;;;11.34;98.97;98862.63;4900580;29;20126;-54
2022/10/22 12:34:00;;;;;;;14.70;9.35;;;;;;;11.71;99.68;98856.56;4898337;29;20392;-54
2022/10/22 12:36:47;;;;;;;16.00;10.50;;;;;;;11.75;97.45;98871.13;4897443;29;20067;-57
2022/10/22 12:39:34;;;;;;;15.05;9.20;;;;;;;12.52;96.79;98874.34;4894339;29;20085;-57
2022/10/22 12:42:20;;;;;;;14.70;9.15;;;;;;;12.06;93.95;98882.03;4894092;29;20075;-56
2022/10/22 12:45:05;;;;;;;12.57;8.32;;;;;;;11.98;93.88;98880.91;4897613;29;20482;-58
2022/10/22 12:47:55;;;;;;;12.00;8.63;;;;;;;11.68;93.66;98876.00;4897817;29;20048;-54
2022/10/22 12:50:47;;;;;;;14.07;8.65;;;;;;;11.47;94.28;98870.47;4899766;29;20048;-56
2022/10/22 12:53:38;;;;;;;22.15;8.48;;;;;;;11.40;95.50;98867.44;4896803;29;20051;-57
2022/10/22 12:56:29;;;;;;;15.38;9.25;;;;;;;11.29;97.44;98867.38;4894876;29;20562;-59
2022/10/22 12:59:35;;;;;;;15.10;8.77;;;;;;;11.27;98.01;98864.00;4894918;29;20408;-59
2022/10/22 13:02:25;;;;;;;13.82;9.27;;;;;;;11.18;99.16;98858.44;4867504;29;20067;-53
2022/10/22 13:05:18;;;;;;;16.05;9.55;;;;;;;11.10;100.00;98858.13;4895726;29;20067;-60
2022/10/22 13:08:08;;;;;;;14.60;9.30;;;;;;;11.18;100.00;98865.50;4896979;29;20080;-56
2022/10/22 13:10:54;;;;;;;14.80;9.25;;;;;;;11.07;100.00;98853.97;4899719;29;20068;-55
2022/10/22 13:13:44;;;;;;;13.73;8.70;;;;;;;10.93;100.00;98868.03;4896870;29;20127;-57
2022/10/22 13:16:30;;;;;;;15.40;8.52;;;;;;;10.91;100.00;98864.66;4883997;29;20055;-56
2022/10/22 13:19:39;;;;;;;13.65;9.07;;;;;;;11.16;100.00;98865.56;4898657;29;20523;-59
2022/10/22 13:22:26;;;;;;;15.10;9.55;;;;;;;11.38;100.00;98864.09;4893158;29;20051;-55
2022/10/22 13:25:31;;;;;;;15.80;9.63;;;;;;;11.52;100.00;98872.78;4884005;29;20479;-52